Terminal Aerodrome Forecast
Issued by NWS Louisville, KY

Home | Current Version | Previous Version | Text Only | Print | Product List | Glossary On
Versions: 1 2 3 4 5 6 7 8 9 10 11 12 13
000
FTUS43 KLMK 211120
TAFBWG
TAF
KBWG 211120Z 2112/2212 20006KT P6SM BKN025
      TEMPO 2112/2115 BKN015
     FM211600 24007KT P6SM VCTS BKN025CB
     FM211900 27008KT P6SM FEW025 BKN040
     FM220000 29007KT P6SM SCT250
     FM220700 VRB03KT P6SM FEW250=

USA.gov is the U.S. government's official web portal to all federal, state and local government web resources and services.